createdAt,value
2023-03-22T00:01:50.121Z,90.58
2023-03-22T00:03:53.453Z,89.37
2023-03-22T00:05:59.385Z,89.34
2023-03-22T00:08:05.663Z,91.49
2023-03-22T00:10:09.594Z,91.60
2023-03-22T00:12:13.982Z,88.92
2023-03-22T00:14:17.057Z,90.70
2023-03-22T00:16:20.439Z,89.34
2023-03-22T00:18:23.483Z,88.95
2023-03-22T00:20:26.517Z,90.58
2023-03-22T00:22:29.556Z,89.37
2023-03-22T00:24:32.819Z,89.96
2023-03-22T00:26:35.893Z,87.66
2023-03-22T00:28:41.050Z,89.60
2023-03-22T00:30:44.827Z,88.48
2023-03-22T00:32:48.143Z,89.28
2023-03-22T00:34:51.351Z,90.69
2023-03-22T00:36:56.245Z,90.86
2023-03-22T00:39:01.931Z,89.84
2023-03-22T00:41:09.372Z,89.63
2023-03-22T00:43:13.331Z,89.42
2023-03-22T00:45:17.937Z,88.69
2023-03-22T00:47:21.060Z,88.57
2023-03-22T00:49:25.530Z,88.80
2023-03-22T00:51:28.636Z,90.15
2023-03-22T00:53:32.910Z,89.75
2023-03-22T00:55:36.030Z,89.58
2023-03-22T00:57:39.316Z,88.74
2023-03-22T00:59:43.045Z,89.54
2023-03-22T01:01:47.503Z,90.24
2023-03-22T01:03:51.032Z,89.50
2023-03-22T01:05:56.384Z,89.81
2023-03-22T01:08:02.729Z,90.35
2023-03-22T01:10:06.771Z,89.49
2023-03-22T01:12:09.814Z,90.69
2023-03-22T01:14:13.910Z,90.87
2023-03-22T01:16:18.249Z,90.78
2023-03-22T01:18:22.772Z,91.04
2023-03-22T01:20:25.993Z,90.28
2023-03-22T01:22:29.069Z,89.98
2023-03-22T01:24:32.423Z,90.39
2023-03-22T01:26:35.738Z,90.45
2023-03-22T01:28:40.624Z,90.54
2023-03-22T01:30:43.879Z,90.73
2023-03-22T01:32:46.894Z,90.65
2023-03-22T01:34:52.237Z,89.84
2023-03-22T01:36:56.378Z,90.24
2023-03-22T01:38:59.548Z,90.31
2023-03-22T01:41:02.628Z,90.43
2023-03-22T01:43:13.186Z,89.68
2023-03-22T01:45:38.152Z,90.09
2023-03-22T01:47:43.101Z,90.38
2023-03-22T01:49:46.307Z,90.37
2023-03-22T01:51:52.822Z,90.36
2023-03-22T01:54:15.165Z,89.88
2023-03-22T01:56:19.562Z,90.45
2023-03-22T01:58:22.726Z,90.75
2023-03-22T02:00:31.017Z,90.52
2023-03-22T02:02:54.378Z,90.57
2023-03-22T02:05:04.257Z,90.06
2023-03-22T02:07:15.237Z,90.04
2023-03-22T02:09:22.042Z,90.29
2023-03-22T02:11:29.648Z,90.63
2023-03-22T02:14:01.196Z,90.55
2023-03-22T02:16:31.179Z,90.18
2023-03-22T02:18:49.646Z,90.41
2023-03-22T02:21:17.772Z,89.60
2023-03-22T02:23:49.894Z,90.23
2023-03-22T02:26:14.101Z,89.50
2023-03-22T02:28:25.888Z,90.24
2023-03-22T02:31:19.901Z,90.54
2023-03-22T02:33:50.542Z,91.15
2023-03-22T02:36:16.566Z,90.52
2023-03-22T02:38:58.668Z,90.60
2023-03-22T02:41:10.427Z,90.48
2023-03-22T02:43:17.355Z,90.86
2023-03-22T02:45:29.113Z,90.40
2023-03-22T02:47:39.519Z,90.39
2023-03-22T02:49:47.752Z,90.67
2023-03-22T02:51:55.037Z,90.20
2023-03-22T02:54:04.863Z,90.96
2023-03-22T02:56:09.771Z,90.27
2023-03-22T02:58:15.659Z,90.79
2023-03-22T03:00:20.921Z,90.35
2023-03-22T03:02:24.913Z,90.69
2023-03-22T03:04:31.100Z,90.32
2023-03-22T03:06:39.911Z,91.63
2023-03-22T03:08:44.088Z,90.84
2023-03-22T03:10:49.094Z,90.16
2023-03-22T03:12:52.431Z,90.37
2023-03-22T03:14:55.818Z,90.41
2023-03-22T03:17:08.685Z,91.73
2023-03-22T03:19:20.284Z,91.43
2023-03-22T03:21:32.730Z,91.01
2023-03-22T03:23:47.076Z,90.54
2023-03-22T03:25:58.921Z,90.51
2023-03-22T03:28:06.437Z,90.74
2023-03-22T03:30:13.332Z,90.43
2023-03-22T03:32:25.561Z,90.54
2023-03-22T03:34:31.474Z,90.75
2023-03-22T03:36:37.850Z,91.18
2023-03-22T03:38:45.618Z,90.83
2023-03-22T03:40:51.730Z,91.04
2023-03-22T03:42:57.155Z,90.80
2023-03-22T03:45:00.998Z,91.45
2023-03-22T03:47:04.789Z,91.47
2023-03-22T03:49:08.925Z,90.88
2023-03-22T03:51:12.975Z,91.42
2023-03-22T03:53:16.418Z,90.83
2023-03-22T03:55:19.659Z,92.15
2023-03-22T03:57:24.043Z,90.94
2023-03-22T03:59:27.150Z,91.85
2023-03-22T04:01:31.155Z,92.48
2023-03-22T04:03:50.584Z,92.34
2023-03-22T04:06:09.956Z,91.30
2023-03-22T04:08:16.934Z,91.23
2023-03-22T04:10:20.062Z,92.38
2023-03-22T04:12:24.628Z,92.25
2023-03-22T04:14:46.227Z,91.48
2023-03-22T04:16:57.572Z,90.65
2023-03-22T04:19:01.249Z,92.06
2023-03-22T04:21:05.578Z,91.75
2023-03-22T04:23:16.444Z,90.01
2023-03-22T04:25:22.890Z,90.20
2023-03-22T04:27:36.361Z,90.31
2023-03-22T04:29:48.648Z,91.29
2023-03-22T04:32:11.707Z,90.52
2023-03-22T04:34:18.199Z,90.74
2023-03-22T04:36:31.164Z,90.50
2023-03-22T04:38:50.107Z,91.06
2023-03-22T04:40:57.946Z,90.25
2023-03-22T04:43:13.744Z,91.61
2023-03-22T04:45:29.321Z,90.76
2023-03-22T04:47:36.556Z,90.13
2023-03-22T04:49:42.628Z,89.70
2023-03-22T04:51:46.250Z,89.55
2023-03-22T04:54:18.594Z,90.62
2023-03-22T04:56:22.280Z,91.55
2023-03-22T04:58:29.105Z,90.51
2023-03-22T05:00:32.199Z,90.69
2023-03-22T05:02:41.089Z,90.70
2023-03-22T05:04:50.060Z,92.32
2023-03-22T05:07:15.326Z,91.13
2023-03-22T05:09:24.269Z,89.83
2023-03-22T05:11:29.426Z,89.53
2023-03-22T05:13:47.314Z,89.74
2023-03-22T05:15:51.867Z,90.61
2023-03-22T05:17:59.220Z,89.36
2023-03-22T05:20:09.252Z,89.31
2023-03-22T05:22:14.423Z,90.42
2023-03-22T05:24:26.339Z,90.35
2023-03-22T05:26:29.507Z,90.31
2023-03-22T05:28:32.790Z,89.75
2023-03-22T05:30:44.004Z,90.41
2023-03-22T05:33:06.098Z,90.47
2023-03-22T05:35:17.347Z,90.69
2023-03-22T05:37:25.900Z,90.71
2023-03-22T05:39:33.368Z,90.10
2023-03-22T05:41:37.060Z,90.92
2023-03-22T05:43:40.826Z,89.61
2023-03-22T05:45:45.892Z,89.35
2023-03-22T05:48:08.359Z,90.24
2023-03-22T05:50:14.012Z,90.33
2023-03-22T05:52:17.078Z,90.55
2023-03-22T05:54:30.373Z,89.41
2023-03-22T05:56:34.473Z,89.84
2023-03-22T05:58:42.691Z,89.18
2023-03-22T06:00:51.473Z,89.37
2023-03-22T06:02:57.303Z,90.35
2023-03-22T06:05:00.665Z,89.86
2023-03-22T06:07:03.776Z,88.87
2023-03-22T06:09:17.637Z,89.11
2023-03-22T06:11:24.711Z,89.05
2023-03-22T06:13:28.687Z,87.86
2023-03-22T06:15:31.985Z,88.29
2023-03-22T06:17:40.751Z,88.32
2023-03-22T06:19:46.251Z,88.00
2023-03-22T06:21:51.887Z,86.78
2023-03-22T06:23:57.210Z,86.71
2023-03-22T06:26:01.248Z,87.79
2023-03-22T06:28:06.954Z,86.61
2023-03-22T06:30:13.057Z,86.47
2023-03-22T06:32:33.711Z,85.59
2023-03-22T06:34:38.657Z,84.44
2023-03-22T06:36:42.460Z,85.12
2023-03-22T06:38:49.773Z,84.31
2023-03-22T06:40:53.629Z,83.91
2023-03-22T06:42:56.779Z,82.48
2023-03-22T06:44:59.910Z,82.53
2023-03-22T06:47:06.966Z,81.56
2023-03-22T06:49:41.209Z,81.84
2023-03-22T06:51:45.847Z,81.79
2023-03-22T06:53:49.583Z,80.82
2023-03-22T06:55:55.231Z,79.77
2023-03-22T06:58:00.226Z,81.16
2023-03-22T07:00:05.088Z,79.61
2023-03-22T07:02:08.330Z,80.64
2023-03-22T07:04:11.442Z,83.33
2023-03-22T07:06:17.008Z,81.29
2023-03-22T07:08:24.356Z,80.62
2023-03-22T07:10:28.928Z,81.09
2023-03-22T07:12:32.526Z,78.68
2023-03-22T07:14:40.440Z,80.76
2023-03-22T07:16:56.880Z,80.14
2023-03-22T07:19:01.913Z,79.65
2023-03-22T07:21:05.421Z,79.24
2023-03-22T07:23:11.544Z,78.98
2023-03-22T07:25:22.304Z,77.45
2023-03-22T07:27:31.559Z,77.48
2023-03-22T07:29:35.567Z,75.33
2023-03-22T07:31:40.069Z,74.81
2023-03-22T07:33:48.624Z,75.69
2023-03-22T07:35:53.874Z,75.90
2023-03-22T07:37:56.974Z,77.52
2023-03-22T07:40:08.470Z,75.43
2023-03-22T07:42:12.684Z,75.27
2023-03-22T07:44:18.916Z,77.37
2023-03-22T07:46:38.348Z,78.11
2023-03-22T07:48:59.839Z,75.54
2023-03-22T07:51:21.429Z,75.62
2023-03-22T07:53:24.787Z,75.44
2023-03-22T07:55:29.370Z,72.77
2023-03-22T07:57:32.438Z,71.79
2023-03-22T07:59:39.497Z,70.87
2023-03-22T08:01:43.600Z,71.95
2023-03-22T08:04:06.152Z,67.53
2023-03-22T08:06:25.742Z,68.36
2023-03-22T08:08:28.783Z,68.14
2023-03-22T08:10:33.483Z,68.30
2023-03-22T08:12:37.256Z,67.63
2023-03-22T08:15:00.584Z,66.84
2023-03-22T08:17:04.796Z,68.13
2023-03-22T08:19:07.797Z,68.27
2023-03-22T08:21:13.302Z,67.61
2023-03-22T08:23:17.718Z,66.73
2023-03-22T08:25:42.419Z,66.87
2023-03-22T08:27:47.272Z,69.04
2023-03-22T08:29:50.614Z,69.54
2023-03-22T08:31:54.398Z,68.57
2023-03-22T08:33:57.527Z,68.26
2023-03-22T08:36:08.096Z,67.61
2023-03-22T08:38:17.231Z,67.66
2023-03-22T08:40:24.036Z,67.20
2023-03-22T08:42:32.349Z,66.50
2023-03-22T08:44:35.515Z,66.96
2023-03-22T08:46:39.769Z,66.67
2023-03-22T08:48:51.012Z,70.23
2023-03-22T08:51:06.728Z,68.16
2023-03-22T08:53:28.610Z,66.04
2023-03-22T08:55:48.390Z,63.47
2023-03-22T08:58:10.147Z,64.39
2023-03-22T09:00:25.526Z,64.58
2023-03-22T09:02:45.189Z,66.20
2023-03-22T09:04:48.680Z,63.93
2023-03-22T09:06:51.761Z,64.68
2023-03-22T09:08:55.620Z,62.88
2023-03-22T09:10:59.999Z,62.80
2023-03-22T09:13:05.137Z,61.64
2023-03-22T09:15:10.788Z,62.61
2023-03-22T09:17:20.633Z,61.91
2023-03-22T09:19:24.767Z,63.72
2023-03-22T09:21:29.734Z,62.47
2023-03-22T09:23:43.455Z,62.83
2023-03-22T09:25:48.057Z,62.75
2023-03-22T09:27:55.202Z,61.74
2023-03-22T09:29:58.489Z,60.53
2023-03-22T09:32:03.052Z,62.38
2023-03-22T09:34:09.516Z,62.09
2023-03-22T09:36:12.969Z,63.68
2023-03-22T09:38:17.231Z,61.46
2023-03-22T09:40:23.745Z,61.54
2023-03-22T09:42:33.816Z,61.05
2023-03-22T09:44:42.779Z,61.65
2023-03-22T09:46:53.781Z,61.94
2023-03-22T09:48:59.214Z,60.73
2023-03-22T09:51:04.179Z,62.23
2023-03-22T09:53:10.534Z,62.24
2023-03-22T09:55:19.837Z,61.99
2023-03-22T09:57:27.508Z,63.44
2023-03-22T09:59:35.239Z,64.06
2023-03-22T10:01:43.369Z,63.32
2023-03-22T10:04:11.374Z,60.90
2023-03-22T10:06:17.781Z,62.27
2023-03-22T10:08:47.800Z,62.33
2023-03-22T10:10:52.676Z,63.40
2023-03-22T10:13:01.112Z,60.34
2023-03-22T10:15:07.020Z,61.29
2023-03-22T10:17:13.350Z,61.32
2023-03-22T10:19:21.195Z,60.19
2023-03-22T10:21:24.410Z,61.29
2023-03-22T10:23:31.821Z,60.64
2023-03-22T10:25:38.018Z,63.30
2023-03-22T10:27:41.593Z,61.62
2023-03-22T10:29:47.268Z,61.63
2023-03-22T10:31:50.637Z,63.05
2023-03-22T10:33:57.032Z,62.59
2023-03-22T10:36:02.213Z,62.11
2023-03-22T10:38:06.549Z,61.62
2023-03-22T10:40:16.139Z,61.63
2023-03-22T10:42:21.772Z,65.86
2023-03-22T10:44:27.109Z,64.27
2023-03-22T10:46:33.846Z,62.83
2023-03-22T10:48:39.392Z,61.21
2023-03-22T10:50:44.650Z,60.58
2023-03-22T10:52:51.151Z,61.98
2023-03-22T10:54:54.268Z,61.75
2023-03-22T10:56:57.529Z,61.79
2023-03-22T10:59:00.579Z,60.32
2023-03-22T11:01:07.333Z,60.18
2023-03-22T11:03:18.805Z,65.13
2023-03-22T11:05:24.693Z,61.67
2023-03-22T11:07:31.458Z,61.19
2023-03-22T11:09:35.830Z,62.25
2023-03-22T11:11:46.118Z,61.05
2023-03-22T11:13:55.621Z,60.06
2023-03-22T11:16:02.514Z,58.82
2023-03-22T11:18:07.735Z,60.70
2023-03-22T11:20:16.988Z,60.24
2023-03-22T11:22:24.900Z,59.65
2023-03-22T11:24:29.446Z,61.92
2023-03-22T11:26:38.819Z,58.68
2023-03-22T11:28:49.021Z,59.36
2023-03-22T11:31:01.136Z,62.68
2023-03-22T11:33:18.597Z,62.24
2023-03-22T11:35:23.858Z,61.68
2023-03-22T11:37:26.969Z,62.17
2023-03-22T11:39:30.784Z,60.89
2023-03-22T11:41:36.467Z,61.15
2023-03-22T11:43:42.291Z,62.36
2023-03-22T11:45:46.002Z,59.35
2023-03-22T11:47:49.210Z,61.54
2023-03-22T11:49:54.541Z,61.64
2023-03-22T11:51:57.602Z,60.32
2023-03-22T11:54:06.290Z,59.94
2023-03-22T11:56:12.092Z,59.12
2023-03-22T11:58:28.054Z,58.30
2023-03-22T12:00:33.463Z,59.61
2023-03-22T12:02:40.092Z,59.37
2023-03-22T12:04:45.441Z,60.52
2023-03-22T12:06:49.043Z,59.29
2023-03-22T12:08:55.323Z,58.06
2023-03-22T12:11:03.277Z,60.42
2023-03-22T12:13:10.841Z,61.00
2023-03-22T12:15:19.329Z,61.13
2023-03-22T12:17:30.256Z,60.30
2023-03-22T12:19:48.422Z,58.88
2023-03-22T12:21:52.916Z,57.84
2023-03-22T12:24:02.438Z,59.54
2023-03-22T12:26:08.180Z,57.69
2023-03-22T12:28:14.732Z,57.89
2023-03-22T12:30:21.530Z,60.76
2023-03-22T12:32:27.559Z,59.41
2023-03-22T12:34:37.235Z,61.44
2023-03-22T12:36:42.940Z,60.82
2023-03-22T12:38:48.674Z,59.79
2023-03-22T12:40:52.876Z,58.81
2023-03-22T12:43:07.309Z,59.76
2023-03-22T12:45:14.228Z,60.09
2023-03-22T12:47:23.973Z,60.11
2023-03-22T12:49:29.875Z,60.42
2023-03-22T12:51:32.901Z,60.00
2023-03-22T12:53:42.336Z,60.36
2023-03-22T12:55:46.626Z,56.73
2023-03-22T12:57:52.388Z,57.78
2023-03-22T12:59:57.695Z,58.28
2023-03-22T13:02:04.826Z,58.55
2023-03-22T13:04:50.896Z,59.39
2023-03-22T13:06:57.506Z,58.21
2023-03-22T13:09:18.929Z,58.50
2023-03-22T13:11:25.617Z,58.80
2023-03-22T13:13:42.417Z,59.64
2023-03-22T13:16:00.872Z,59.82
2023-03-22T13:18:04.453Z,57.92
2023-03-22T13:20:30.860Z,58.34
2023-03-22T13:23:01.484Z,58.06
2023-03-22T13:25:17.180Z,59.11
2023-03-22T13:27:20.468Z,57.56
2023-03-22T13:29:25.423Z,57.71
2023-03-22T13:31:38.819Z,57.45
2023-03-22T13:33:42.076Z,58.38
2023-03-22T13:35:51.285Z,56.90
2023-03-22T13:37:55.408Z,56.53
2023-03-22T13:40:02.900Z,56.45
2023-03-22T13:42:17.066Z,55.89
2023-03-22T13:44:22.419Z,54.57
2023-03-22T13:46:46.728Z,55.81
2023-03-22T13:48:56.139Z,56.08
2023-03-22T13:51:10.693Z,55.11
2023-03-22T13:53:17.085Z,56.58
2023-03-22T13:55:42.832Z,55.31
2023-03-22T13:57:49.239Z,55.26
2023-03-22T14:00:12.164Z,54.54
2023-03-22T14:02:19.497Z,53.54
2023-03-22T14:04:26.310Z,54.33
2023-03-22T14:06:33.773Z,56.18
2023-03-22T14:08:37.937Z,54.57
2023-03-22T14:10:43.382Z,55.41
2023-03-22T14:12:50.987Z,55.42
2023-03-22T14:14:57.417Z,56.53
2023-03-22T14:17:04.847Z,55.36
2023-03-22T14:19:09.929Z,55.46
2023-03-22T14:21:15.114Z,53.63
